Caryville, Florida
Current Conditions -  °F | °C
As of 6:35 AM on Sunday 21 Dec 2014 (Local Time) from K54J Reporting Station
Overcast Overcast  
Wind Chill: 52°   Ceiling: 1600
Heat Index: 52°   Visibility: 10mi
Dew Point: 50°   Wind: 7mph
Humidity: 94%   Direction: 30°NNE
Pressure: 30.1"   Gusts: NA
Location:  30.77°N, 85.81°W
Report Text: K54J 211235Z AUTO 03006KT 10SM OVC016 11/10 A3010 RMK AO2 T01120102
Loading
Personal Weather Stations






























Interactive Weather Map New forecast layout! Learn more

10-Day Weather Forecast

Advertisements
Track Severe Weather on mobile